Time;durP1;ratioP1;P1;durP2;ratioP2;P2;SDS_P1;SDS_P2;PMS_P1;PMS_P2;Temp;Humidity;BMP_temperature;BMP_pressure;BME280_temperature;BME280_humidity;BME280_pressure;Samples;Min_cycle;Max_cycle;Signal;HPM_P1;HPM_P2
2022/10/26 00:00:48;;;;;;;19.85;16.65;;;10.70;99.90;;;;;;5061385;28;20106;-81
2022/10/26 00:03:15;;;;;;;21.20;17.73;;;10.70;99.90;;;;;;5060232;28;20509;-81
2022/10/26 00:05:42;;;;;;;22.77;18.75;;;10.70;99.90;;;;;;5035982;28;20076;-80
2022/10/26 00:08:08;;;;;;;18.55;16.55;;;10.60;99.90;;;;;;5027958;28;20332;-80
2022/10/26 00:10:35;;;;;;;22.42;18.33;;;10.60;99.90;;;;;;5058490;28;20052;-80
2022/10/26 00:13:01;;;;;;;22.52;17.58;;;10.60;99.90;;;;;;5035976;28;20044;-80
2022/10/26 00:15:27;;;;;;;24.33;18.58;;;10.60;99.90;;;;;;5028133;28;20044;-80
2022/10/26 00:17:53;;;;;;;21.65;18.20;;;10.60;99.90;;;;;;5039425;28;21160;-81
2022/10/26 00:20:21;;;;;;;25.48;20.15;;;10.60;99.90;;;;;;5036007;28;20094;-81
2022/10/26 00:22:47;;;;;;;26.92;21.25;;;10.50;99.90;;;;;;5059795;28;20040;-80
2022/10/26 00:25:13;;;;;;;18.35;16.45;;;10.50;99.90;;;;;;5060658;28;20074;-78
2022/10/26 00:27:39;;;;;;;23.90;19.38;;;10.50;99.90;;;;;;5056908;28;20697;-78
2022/10/26 00:30:06;;;;;;;20.67;18.27;;;10.50;99.90;;;;;;5045958;28;20051;-79
2022/10/26 00:32:32;;;;;;;22.02;18.30;;;10.50;99.90;;;;;;5046282;28;20059;-79
2022/10/26 00:35:01;;;;;;;18.23;16.40;;;10.50;99.90;;;;;;5057978;28;20041;-79
2022/10/26 00:37:26;;;;;;;18.25;16.08;;;10.50;99.90;;;;;;5018538;28;20048;-79
2022/10/26 00:39:52;;;;;;;18.45;16.55;;;10.40;99.90;;;;;;5037067;28;20402;-78
2022/10/26 00:42:20;;;;;;;18.27;16.33;;;10.40;99.90;;;;;;5044806;28;20752;-78
2022/10/26 00:44:46;;;;;;;19.63;17.58;;;10.40;99.90;;;;;;5044713;28;20051;-78
2022/10/26 00:47:45;;;;;;;18.80;16.73;;;10.30;99.90;;;;;;5030720;28;20052;-78
2022/10/26 00:50:19;;;;;;;22.52;19.23;;;10.30;99.90;;;;;;5040671;28;20123;-78
2022/10/26 00:52:45;;;;;;;21.15;17.20;;;10.30;99.90;;;;;;5073965;28;20041;-78
2022/10/26 00:55:11;;;;;;;20.30;17.48;;;10.30;99.90;;;;;;5041775;28;20122;-78
2022/10/26 00:57:38;;;;;;;20.25;17.80;;;10.30;99.90;;;;;;5048569;28;20589;-78
2022/10/26 01:00:06;;;;;;;22.67;19.13;;;10.30;99.90;;;;;;5044675;28;20052;-78
2022/10/26 01:02:32;;;;;;;20.88;18.60;;;10.20;99.90;;;;;;5048859;28;20080;-78
2022/10/26 01:05:00;;;;;;;22.08;19.85;;;10.20;99.90;;;;;;5036676;28;20181;-78
2022/10/26 01:07:26;;;;;;;22.20;19.85;;;10.20;99.90;;;;;;5042007;28;20556;-78
2022/10/26 01:09:53;;;;;;;23.95;20.17;;;10.20;99.90;;;;;;5044417;28;20044;-79
2022/10/26 01:12:19;;;;;;;21.95;17.58;;;10.10;99.90;;;;;;5055116;28;20414;-79
2022/10/26 01:14:45;;;;;;;19.73;17.75;;;10.10;99.90;;;;;;5032655;28;20049;-79
2022/10/26 01:17:37;;;;;;;20.77;18.40;;;10.10;99.90;;;;;;5059447;28;20531;-79
2022/10/26 01:20:24;;;;;;;25.48;20.65;;;10.10;99.90;;;;;;5021864;28;20090;-78
2022/10/26 01:22:57;;;;;;;20.67;18.27;;;10.10;99.90;;;;;;5044445;28;20048;-79
2022/10/26 01:25:40;;;;;;;21.13;17.45;;;10.10;99.90;;;;;;5044704;28;20061;-79
2022/10/26 01:28:20;;;;;;;28.00;20.95;;;10.10;99.90;;;;;;5042549;28;20048;-78
2022/10/26 01:30:47;;;;;;;19.17;16.90;;;10.00;99.90;;;;;;5059696;28;20041;-78
2022/10/26 01:33:13;;;;;;;21.52;17.67;;;10.00;99.90;;;;;;5043470;28;20071;-79
2022/10/26 01:36:01;;;;;;;21.10;16.58;;;9.90;99.90;;;;;;5048197;28;20072;-78
2022/10/26 01:38:53;;;;;;;22.75;17.52;;;10.00;99.90;;;;;;5044976;28;20044;-78
2022/10/26 01:41:48;;;;;;;20.73;18.60;;;9.90;99.90;;;;;;5058280;28;20048;-79
2022/10/26 01:44:20;;;;;;;24.08;19.05;;;9.90;99.90;;;;;;5056417;28;20041;-79
2022/10/26 01:46:49;;;;;;;18.55;16.58;;;9.80;99.90;;;;;;5047208;28;20049;-79
2022/10/26 01:49:18;;;;;;;22.20;19.67;;;9.80;99.90;;;;;;5058838;28;20095;-78
2022/10/26 01:51:46;;;;;;;23.38;20.80;;;9.80;99.90;;;;;;5041510;28;20056;-79
2022/10/26 01:54:12;;;;;;;24.77;21.40;;;9.80;99.90;;;;;;5054612;28;20058;-79
2022/10/26 01:56:41;;;;;;;21.50;17.27;;;9.80;99.90;;;;;;5046020;28;20217;-78
2022/10/26 01:59:31;;;;;;;20.63;17.33;;;9.70;99.90;;;;;;5042033;28;20071;-79
2022/10/26 02:02:30;;;;;;;32.25;23.58;;;9.70;99.90;;;;;;5058522;28;20037;-79
2022/10/26 02:05:17;;;;;;;38.40;27.08;;;9.70;99.90;;;;;;5052217;28;20485;-78
2022/10/26 02:08:13;;;;;;;28.92;22.02;;;9.60;99.90;;;;;;5035517;28;20057;-79
2022/10/26 02:10:50;;;;;;;23.83;18.52;;;9.60;99.90;;;;;;5049065;28;20134;-78
2022/10/26 02:13:20;;;;;;;21.10;18.98;;;9.60;99.90;;;;;;5031384;28;20399;-79
2022/10/26 02:15:54;;;;;;;33.50;23.65;;;9.60;99.90;;;;;;5041021;28;20530;-79
2022/10/26 02:18:49;;;;;;;49.97;28.23;;;9.50;99.90;;;;;;5049427;28;20407;-79
2022/10/26 02:21:19;;;;;;;25.60;22.67;;;9.50;99.90;;;;;;5050720;28;20061;-79
2022/10/26 02:23:46;;;;;;;26.38;22.15;;;9.50;99.90;;;;;;5061050;28;20036;-79
2022/10/26 02:26:16;;;;;;;25.10;22.45;;;9.50;99.90;;;;;;5039580;28;20037;-79
2022/10/26 02:28:46;;;;;;;26.48;23.55;;;9.50;99.90;;;;;;5058638;28;20585;-79
2022/10/26 02:31:13;;;;;;;27.77;22.00;;;9.50;99.90;;;;;;5038708;28;20041;-79
2022/10/26 02:33:44;;;;;;;24.70;20.38;;;9.50;99.90;;;;;;5043290;28;20118;-79
2022/10/26 02:36:13;;;;;;;40.17;27.17;;;9.50;99.90;;;;;;5077427;28;20121;-79
2022/10/26 02:38:40;;;;;;;32.72;24.92;;;9.40;99.90;;;;;;5046863;28;20101;-79
2022/10/26 02:41:09;;;;;;;30.98;23.55;;;9.40;99.90;;;;;;5041823;28;20271;-79
2022/10/26 02:43:42;;;;;;;46.00;32.58;;;9.40;99.90;;;;;;5061858;28;20190;-79
2022/10/26 02:46:12;;;;;;;28.00;24.83;;;9.40;99.90;;;;;;5046664;28;20060;-80
2022/10/26 02:48:38;;;;;;;26.95;23.15;;;9.40;99.90;;;;;;5064502;28;20040;-78
2022/10/26 02:51:06;;;;;;;29.00;25.90;;;9.40;99.90;;;;;;5059268;28;20043;-79
2022/10/26 02:53:53;;;;;;;27.05;24.27;;;9.40;99.90;;;;;;5047354;28;20470;-79
2022/10/26 02:56:41;;;;;;;32.10;27.08;;;9.40;99.90;;;;;;5045372;28;20131;-79
2022/10/26 02:59:10;;;;;;;40.58;29.52;;;9.40;99.90;;;;;;5061806;28;20048;-78
2022/10/26 03:01:36;;;;;;;30.02;26.27;;;9.40;99.90;;;;;;5059431;28;20091;-79
2022/10/26 03:04:02;;;;;;;32.60;27.20;;;9.40;99.90;;;;;;5064343;28;20078;-79
2022/10/26 03:06:27;;;;;;;32.15;28.13;;;9.40;99.90;;;;;;5045218;28;20060;-79
2022/10/26 03:08:53;;;;;;;50.47;34.60;;;9.50;99.90;;;;;;5030148;28;20686;-79
2022/10/26 03:11:19;;;;;;;31.40;27.48;;;9.40;99.90;;;;;;5024528;28;20041;-79
2022/10/26 03:13:45;;;;;;;31.05;27.77;;;9.40;99.90;;;;;;5046125;28;20036;-80
2022/10/26 03:16:11;;;;;;;29.80;26.63;;;9.50;99.90;;;;;;5060667;28;20052;-79
2022/10/26 03:18:36;;;;;;;34.20;30.33;;;9.50;99.90;;;;;;5030115;28;20414;-80
2022/10/26 03:21:02;;;;;;;32.80;29.38;;;9.40;99.90;;;;;;5031963;28;20047;-79
2022/10/26 03:23:30;;;;;;;39.03;29.83;;;9.50;99.90;;;;;;5066223;28;20040;-79
2022/10/26 03:25:57;;;;;;;32.20;26.40;;;9.50;99.90;;;;;;5044245;28;20052;-80
2022/10/26 03:28:23;;;;;;;35.60;28.85;;;9.50;99.90;;;;;;5049514;28;20090;-80
2022/10/26 03:30:49;;;;;;;33.72;29.35;;;9.50;99.90;;;;;;5053328;28;20036;-79
2022/10/26 03:33:15;;;;;;;40.90;30.27;;;9.50;99.90;;;;;;5062892;28;20041;-79
2022/10/26 03:35:40;;;;;;;33.65;29.15;;;9.50;99.90;;;;;;5059018;28;20056;-79
2022/10/26 03:38:06;;;;;;;34.15;28.13;;;9.50;99.90;;;;;;5062641;28;20068;-80
2022/10/26 03:40:32;;;;;;;33.80;29.95;;;9.50;99.90;;;;;;5026605;28;20044;-80
2022/10/26 03:42:58;;;;;;;30.48;27.25;;;9.50;99.90;;;;;;5047056;28;20049;-81
2022/10/26 03:45:24;;;;;;;30.45;27.02;;;9.50;99.90;;;;;;5061647;28;20044;-79
2022/10/26 03:47:50;;;;;;;30.38;27.30;;;9.50;99.90;;;;;;5040764;28;20044;-79
2022/10/26 03:50:19;;;;;;;32.22;28.73;;;9.50;99.90;;;;;;5044131;28;20044;-79
2022/10/26 03:52:46;;;;;;;42.55;33.40;;;9.50;99.90;;;;;;5062960;28;20090;-79
2022/10/26 03:55:12;;;;;;;38.28;31.50;;;9.50;99.90;;;;;;5044101;28;20154;-79
2022/10/26 03:57:42;;;;;;;31.88;28.60;;;9.50;99.90;;;;;;5056706;28;20049;-80
2022/10/26 04:00:14;;;;;;;35.75;31.40;;;9.40;99.90;;;;;;5061314;28;20055;-79
2022/10/26 04:02:47;;;;;;;37.22;30.73;;;9.50;99.90;;;;;;5046785;28;20040;-79
2022/10/26 04:05:13;;;;;;;33.85;28.45;;;9.50;99.90;;;;;;5057773;28;20067;-80
2022/10/26 04:07:39;;;;;;;37.78;31.23;;;9.50;99.90;;;;;;5051808;28;20095;-79
2022/10/26 04:10:05;;;;;;;32.78;28.15;;;9.40;99.90;;;;;;5034924;28;20064;-79
2022/10/26 04:12:31;;;;;;;32.20;27.88;;;9.40;99.90;;;;;;5057143;28;20040;-80
2022/10/26 04:14:57;;;;;;;52.00;35.90;;;9.40;99.90;;;;;;5040177;28;20406;-79
2022/10/26 04:17:23;;;;;;;36.85;28.83;;;9.40;99.90;;;;;;5050650;28;20479;-80
2022/10/26 04:19:49;;;;;;;33.88;29.95;;;9.40;99.90;;;;;;5041754;28;20067;-79
2022/10/26 04:22:15;;;;;;;39.63;31.13;;;9.30;99.90;;;;;;5030262;28;20542;-79
2022/10/26 04:24:41;;;;;;;34.63;29.63;;;9.30;99.90;;;;;;5038855;28;20052;-79
2022/10/26 04:27:07;;;;;;;30.35;27.00;;;9.30;99.90;;;;;;5054719;28;20045;-79
2022/10/26 04:29:32;;;;;;;37.25;31.60;;;9.40;99.90;;;;;;5040094;28;20076;-79
2022/10/26 04:31:58;;;;;;;49.58;34.67;;;9.40;99.90;;;;;;5036491;28;20056;-79
2022/10/26 04:34:24;;;;;;;38.97;31.73;;;9.40;99.90;;;;;;5017128;28;20041;-72
2022/10/26 04:36:50;;;;;;;35.25;31.10;;;9.40;99.90;;;;;;5031729;28;20182;-78
2022/10/26 04:39:15;;;;;;;37.22;30.10;;;9.40;99.90;;;;;;5056157;28;20041;-79
2022/10/26 04:41:41;;;;;;;37.03;31.52;;;9.50;99.90;;;;;;5012185;28;20037;-79
2022/10/26 04:44:07;;;;;;;33.85;28.08;;;9.60;99.90;;;;;;5030302;28;20527;-80
2022/10/26 04:46:33;;;;;;;32.25;28.50;;;9.60;99.90;;;;;;5027873;28;20090;-80
2022/10/26 04:48:59;;;;;;;44.40;35.03;;;9.60;99.90;;;;;;5045687;28;20075;-80
2022/10/26 04:51:25;;;;;;;32.30;28.23;;;9.70;99.90;;;;;;5038933;28;20052;-80
2022/10/26 04:53:53;;;;;;;33.20;28.13;;;9.70;99.90;;;;;;5059398;28;20072;-80
2022/10/26 04:56:19;;;;;;;32.10;28.65;;;9.80;99.90;;;;;;5038558;28;20036;-80
2022/10/26 04:58:45;;;;;;;33.22;29.58;;;9.80;99.90;;;;;;5041172;28;20142;-80
2022/10/26 05:01:11;;;;;;;33.75;28.13;;;9.80;99.90;;;;;;5043000;28;20079;-79
2022/10/26 05:03:36;;;;;;;35.25;28.10;;;9.80;99.90;;;;;;5047085;28;20044;-80
2022/10/26 05:06:02;;;;;;;30.30;26.90;;;9.90;99.90;;;;;;5038438;28;20510;-80
2022/10/26 05:08:28;;;;;;;36.30;28.83;;;9.90;99.90;;;;;;5040325;28;20514;-80
2022/10/26 05:10:54;;;;;;;31.88;27.60;;;9.90;99.90;;;;;;5022478;28;20049;-79
2022/10/26 05:13:20;;;;;;;33.72;27.38;;;9.90;99.90;;;;;;5078025;28;20178;-80
2022/10/26 05:15:46;;;;;;;32.72;28.45;;;9.90;99.90;;;;;;5022320;28;20135;-80
2022/10/26 05:18:12;;;;;;;33.97;27.88;;;10.00;99.90;;;;;;5044769;28;20098;-80
2022/10/26 05:20:37;;;;;;;32.50;27.02;;;10.00;99.90;;;;;;5001315;28;20040;-81
2022/10/26 05:23:09;;;;;;;30.75;27.38;;;10.00;99.90;;;;;;5006582;28;20048;-80
2022/10/26 05:25:36;;;;;;;35.03;29.10;;;10.00;99.90;;;;;;5067037;28;20050;-81
2022/10/26 05:28:06;;;;;;;33.60;26.88;;;10.00;99.90;;;;;;5020389;28;20045;-80
2022/10/26 05:30:35;;;;;;;30.25;27.02;;;10.00;99.90;;;;;;5052823;28;20102;-80
2022/10/26 05:33:02;;;;;;;29.88;26.23;;;10.00;99.90;;;;;;5035509;28;20047;-80
2022/10/26 05:35:31;;;;;;;32.88;29.27;;;10.00;99.90;;;;;;5021597;28;20081;-80
2022/10/26 05:37:57;;;;;;;32.15;27.95;;;10.10;99.90;;;;;;5050493;28;20442;-79
2022/10/26 05:40:23;;;;;;;28.02;24.58;;;10.10;99.90;;;;;;5076311;28;20045;-79
2022/10/26 05:42:49;;;;;;;30.10;25.65;;;10.10;99.90;;;;;;5057854;28;20048;-80
2022/10/26 05:45:19;;;;;;;35.35;26.23;;;10.10;99.90;;;;;;5024247;28;20583;-79
2022/10/26 05:47:45;;;;;;;29.25;26.10;;;10.10;99.90;;;;;;5041571;28;20040;-80
2022/10/26 05:50:12;;;;;;;29.73;26.35;;;10.20;99.90;;;;;;5044260;28;20049;-77
2022/10/26 05:52:39;;;;;;;29.88;24.52;;;10.20;99.90;;;;;;5058144;28;20037;-80
2022/10/26 05:55:07;;;;;;;28.70;25.08;;;10.20;99.90;;;;;;5039171;28;20143;-79
2022/10/26 05:57:33;;;;;;;27.13;24.17;;;10.20;99.90;;;;;;5052666;28;20048;-79
2022/10/26 05:59:59;;;;;;;28.70;24.80;;;10.30;99.90;;;;;;5029615;28;20095;-78
2022/10/26 06:02:37;;;;;;;30.27;26.67;;;10.20;99.90;;;;;;5052470;28;20075;-79
2022/10/26 06:05:04;;;;;;;29.83;24.83;;;10.30;99.90;;;;;;5052941;28;20415;-79
2022/10/26 06:07:32;;;;;;;29.63;23.65;;;10.30;99.90;;;;;;5011174;28;20051;-80
2022/10/26 06:09:58;;;;;;;32.95;26.73;;;10.30;99.90;;;;;;5054625;28;20044;-80
2022/10/26 06:12:25;;;;;;;29.15;24.15;;;10.30;99.90;;;;;;5045066;28;20045;-81
2022/10/26 06:14:51;;;;;;;29.45;24.98;;;10.30;99.90;;;;;;5031258;28;20067;-79
2022/10/26 06:17:44;;;;;;;30.52;24.75;;;10.30;99.90;;;;;;5047514;28;20041;-79
2022/10/26 06:20:21;;;;;;;25.17;22.58;;;10.30;99.90;;;;;;5063961;28;20045;-80
2022/10/26 06:23:15;;;;;;;24.08;21.52;;;10.30;99.90;;;;;;5056458;28;20048;-77
2022/10/26 06:26:00;;;;;;;25.92;22.17;;;10.40;99.90;;;;;;5038417;28;20517;-81
2022/10/26 06:28:44;;;;;;;25.25;22.23;;;10.30;99.90;;;;;;5062731;28;20055;-79
2022/10/26 06:31:12;;;;;;;25.80;22.52;;;10.40;99.90;;;;;;5071829;28;20056;-79
2022/10/26 06:33:38;;;;;;;27.38;23.00;;;10.30;99.90;;;;;;5059222;28;20117;-80
2022/10/26 06:36:21;;;;;;;33.35;24.23;;;10.40;99.90;;;;;;5022439;28;20495;-79
2022/10/26 06:38:49;;;;;;;26.45;22.38;;;10.40;99.90;;;;;;5067889;28;20501;-78
2022/10/26 06:41:18;;;;;;;24.15;21.63;;;10.30;99.90;;;;;;5059297;28;20052;-79
2022/10/26 06:43:44;;;;;;;28.27;21.35;;;10.40;99.90;;;;;;5013562;28;20043;-79
2022/10/26 06:46:18;;;;;;;24.73;20.65;;;10.40;99.90;;;;;;5047245;28;20045;-78
2022/10/26 06:48:54;;;;;;;23.50;21.05;;;10.40;99.90;;;;;;5057399;28;20063;-78
2022/10/26 06:51:20;;;;;;;26.38;21.77;;;10.40;99.90;;;;;;5036707;28;20048;-80
2022/10/26 06:54:17;;;;;;;23.02;19.73;;;10.40;99.90;;;;;;5043314;28;20414;-79
2022/10/26 06:56:47;;;;;;;24.38;20.33;;;10.40;99.90;;;;;;5038219;28;20049;-79
2022/10/26 06:59:24;;;;;;;24.38;21.02;;;10.40;99.90;;;;;;5045178;28;20045;-78
2022/10/26 07:01:50;;;;;;;25.05;20.48;;;10.40;99.90;;;;;;5043232;28;20136;-80
2022/10/26 07:04:15;;;;;;;23.40;20.98;;;10.40;99.90;;;;;;5007917;28;20037;-80
2022/10/26 07:06:41;;;;;;;22.00;19.42;;;10.50;99.90;;;;;;5010693;28;20068;-80
2022/10/26 07:09:07;;;;;;;22.65;19.08;;;10.50;99.90;;;;;;5044068;28;20092;-79
2022/10/26 07:11:33;;;;;;;21.17;18.55;;;10.50;99.90;;;;;;5022938;28;20483;-79
2022/10/26 07:14:01;;;;;;;21.70;18.33;;;10.60;99.90;;;;;;5044812;28;20052;-79
2022/10/26 07:16:28;;;;;;;24.13;19.45;;;10.60;99.90;;;;;;5039890;28;20083;-80
2022/10/26 07:18:54;;;;;;;19.77;17.65;;;10.70;99.90;;;;;;5045986;28;20052;-80
2022/10/26 07:21:19;;;;;;;21.38;19.08;;;10.70;99.90;;;;;;5038673;28;20059;-81
2022/10/26 07:23:45;;;;;;;20.25;18.02;;;10.80;99.90;;;;;;5058577;28;20453;-80
2022/10/26 07:26:11;;;;;;;19.38;17.30;;;10.90;99.90;;;;;;5037629;28;20041;-80
2022/10/26 07:28:37;;;;;;;21.50;18.10;;;10.90;99.90;;;;;;5043979;28;20459;-80
2022/10/26 07:31:04;;;;;;;19.42;17.27;;;11.00;99.90;;;;;;5055828;28;20534;-81
2022/10/26 07:33:30;;;;;;;19.75;16.38;;;11.00;99.90;;;;;;5022919;28;20047;-81
2022/10/26 07:35:58;;;;;;;19.13;15.90;;;11.10;99.90;;;;;;5028390;28;20606;-80
2022/10/26 07:38:24;;;;;;;17.90;16.15;;;11.10;99.90;;;;;;5042934;28;20044;-80
2022/10/26 07:40:53;;;;;;;19.58;15.23;;;11.10;99.90;;;;;;5056377;28;20094;-81
2022/10/26 07:43:18;;;;;;;20.80;15.55;;;11.20;99.90;;;;;;5036535;28;20119;-81
2022/10/26 07:45:47;;;;;;;16.23;14.13;;;11.30;99.90;;;;;;5042351;28;20080;-80
2022/10/26 07:48:13;;;;;;;17.90;15.10;;;11.30;99.90;;;;;;5040706;28;20056;-81
2022/10/26 07:50:38;;;;;;;15.27;13.63;;;11.40;99.90;;;;;;5044141;28;20128;-81
2022/10/26 07:53:05;;;;;;;16.33;14.15;;;11.50;99.90;;;;;;5044500;28;20044;-80
2022/10/26 07:55:30;;;;;;;15.82;12.60;;;11.60;99.90;;;;;;5055522;28;20519;-81
2022/10/26 07:57:56;;;;;;;13.98;12.23;;;11.60;99.90;;;;;;5044001;28;20079;-80
2022/10/26 08:00:22;;;;;;;13.32;11.75;;;11.70;99.90;;;;;;5041983;28;20051;-80
2022/10/26 08:02:48;;;;;;;15.18;11.65;;;11.80;99.90;;;;;;5043011;28;20353;-79
2022/10/26 08:05:14;;;;;;;12.20;10.88;;;11.80;99.90;;;;;;5025677;28;20056;-80
2022/10/26 08:07:43;;;;;;;13.38;11.98;;;11.80;99.90;;;;;;5041451;28;20040;-80
2022/10/26 08:10:10;;;;;;;13.20;10.88;;;11.90;99.90;;;;;;5037259;28;20049;-80
2022/10/26 08:12:37;;;;;;;12.18;10.77;;;11.90;99.90;;;;;;5042819;28;20041;-80
2022/10/26 08:15:03;;;;;;;11.35;10.20;;;12.00;99.90;;;;;;5041461;28;20394;-80
2022/10/26 08:17:29;;;;;;;15.23;11.13;;;12.10;99.90;;;;;;5045501;28;20439;-81
2022/10/26 08:19:55;;;;;;;12.23;10.32;;;12.10;99.90;;;;;;5026982;28;20071;-81
2022/10/26 08:22:20;;;;;;;12.60;9.52;;;12.20;99.90;;;;;;5042474;28;20403;-81
2022/10/26 08:24:46;;;;;;;11.05;9.95;;;12.20;99.90;;;;;;5025527;28;20044;-80
2022/10/26 08:27:13;;;;;;;11.45;9.23;;;12.30;99.90;;;;;;5039299;28;20041;-81
2022/10/26 08:29:40;;;;;;;13.20;9.98;;;12.20;99.90;;;;;;5058497;28;20033;-81
2022/10/26 08:32:06;;;;;;;12.75;10.10;;;12.20;99.90;;;;;;5054095;28;20163;-80
2022/10/26 08:34:32;;;;;;;15.25;10.35;;;12.20;99.90;;;;;;5059208;28;20037;-81
2022/10/26 08:36:58;;;;;;;11.23;9.98;;;12.20;99.90;;;;;;5054073;28;20307;-81
2022/10/26 08:39:27;;;;;;;12.35;10.25;;;12.20;99.90;;;;;;5043273;28;20071;-80
2022/10/26 08:42:10;;;;;;;15.90;10.73;;;12.30;99.90;;;;;;5039901;28;20048;-81
2022/10/26 08:45:19;;;;;;;12.40;9.68;;;12.30;99.90;;;;;;5058323;28;20123;-80
2022/10/26 08:47:48;;;;;;;11.88;10.45;;;12.30;99.90;;;;;;5053395;28;20048;-80
2022/10/26 08:50:36;;;;;;;11.70;9.07;;;12.40;99.90;;;;;;5058473;28;20143;-80
2022/10/26 08:53:34;;;;;;;14.43;9.57;;;12.50;99.90;;;;;;5057740;28;20796;-80
2022/10/26 08:56:16;;;;;;;10.45;9.02;;;12.60;99.90;;;;;;5036618;28;20057;-81
2022/10/26 08:58:50;;;;;;;12.25;9.27;;;12.80;99.90;;;;;;5059106;28;20041;-82
2022/10/26 09:01:17;;;;;;;13.27;8.63;;;12.90;99.90;;;;;;5060083;28;20358;-81
2022/10/26 09:03:42;;;;;;;11.25;8.45;;;13.00;99.90;;;;;;5039173;28;20491;-81
2022/10/26 09:06:30;;;;;;;10.20;8.38;;;13.10;99.90;;;;;;5011439;28;20054;-79
2022/10/26 09:08:59;;;;;;;9.95;7.60;;;13.20;99.90;;;;;;5042977;28;20530;-82
2022/10/26 09:11:47;;;;;;;10.98;7.82;;;13.40;99.90;;;;;;5041856;28;20115;-82
2022/10/26 09:14:43;;;;;;;10.02;6.60;;;13.50;99.90;;;;;;5041147;28;20044;-81
2022/10/26 09:17:41;;;;;;;9.77;7.13;;;13.70;99.90;;;;;;5057134;28;20102;-83
2022/10/26 09:20:38;;;;;;;9.43;6.40;;;13.80;99.90;;;;;;5043359;28;20491;-82
2022/10/26 09:23:29;;;;;;;10.65;6.25;;;13.90;99.90;;;;;;5057872;28;20078;-82
2022/10/26 09:26:00;;;;;;;11.95;6.00;;;14.00;99.90;;;;;;5042582;28;20138;-82
2022/10/26 09:28:32;;;;;;;9.15;5.97;;;14.10;99.90;;;;;;5041462;28;20550;-82
2022/10/26 09:31:00;;;;;;;10.82;5.75;;;14.30;99.90;;;;;;5057169;28;20057;-82
2022/10/26 09:33:28;;;;;;;8.65;5.70;;;14.30;99.90;;;;;;5061366;28;20040;-82
2022/10/26 09:36:07;;;;;;;7.20;5.90;;;14.40;99.90;;;;;;5054950;28;20427;-81
2022/10/26 09:38:54;;;;;;;9.95;6.13;;;14.50;99.90;;;;;;5045215;28;20091;-82
2022/10/26 09:41:37;;;;;;;10.43;6.22;;;14.60;99.90;;;;;;5056245;28;20057;-82
2022/10/26 09:44:25;;;;;;;8.80;6.45;;;14.60;99.90;;;;;;5043209;28;20671;-83
2022/10/26 09:47:03;;;;;;;8.75;5.38;;;14.70;99.90;;;;;;5059756;28;20048;-82
2022/10/26 09:49:49;;;;;;;8.90;5.68;;;14.70;99.90;;;;;;5046077;28;20127;-82
2022/10/26 09:52:16;;;;;;;12.90;5.32;;;14.70;99.90;;;;;;5061475;28;20097;-82
2022/10/26 09:54:42;;;;;;;7.25;5.03;;;14.80;99.90;;;;;;5057181;28;20644;-81
2022/10/26 09:57:09;;;;;;;8.23;5.40;;;14.80;99.90;;;;;;5023892;28;20135;-82
2022/10/26 09:59:38;;;;;;;9.10;5.80;;;14.80;99.90;;;;;;5042899;28;20098;-81
2022/10/26 10:02:32;;;;;;;8.25;5.30;;;14.90;99.90;;;;;;5043756;28;20055;-81
2022/10/26 10:04:58;;;;;;;10.40;6.07;;;15.00;99.90;;;;;;5046191;28;20045;-82
2022/10/26 10:07:24;;;;;;;11.55;5.57;;;15.00;99.90;;;;;;5031419;28;20045;-82
2022/10/26 10:10:20;;;;;;;11.43;5.88;;;15.10;99.90;;;;;;5045378;28;20395;-81
2022/10/26 10:12:49;;;;;;;7.88;5.20;;;15.20;99.90;;;;;;5040759;28;20048;-81
2022/10/26 10:15:22;;;;;;;11.13;5.55;;;15.30;99.90;;;;;;5049912;28;20074;-82
2022/10/26 10:17:54;;;;;;;7.35;5.20;;;15.40;99.90;;;;;;5044049;28;20048;-83
2022/10/26 10:20:33;;;;;;;9.10;5.28;;;15.50;99.90;;;;;;5061907;28;20048;-82
2022/10/26 10:23:02;;;;;;;7.43;4.70;;;15.60;99.90;;;;;;5058224;28;20538;-81
2022/10/26 10:25:36;;;;;;;9.98;4.00;;;15.70;99.90;;;;;;5062902;28;20437;-82
2022/10/26 10:28:23;;;;;;;6.22;4.28;;;15.80;99.90;;;;;;5057940;28;20126;-81
2022/10/26 10:31:25;;;;;;;10.70;4.07;;;15.80;99.90;;;;;;5040501;28;20147;-81
2022/10/26 10:33:52;;;;;;;8.05;4.63;;;15.90;99.90;;;;;;5058231;28;20052;-81
2022/10/26 10:36:23;;;;;;;7.63;4.38;;;16.00;99.90;;;;;;5065280;28;20572;-81
2022/10/26 10:38:51;;;;;;;5.55;4.03;;;16.10;99.90;;;;;;5044020;28;21905;-81
2022/10/26 10:41:29;;;;;;;8.85;4.45;;;16.20;99.90;;;;;;5064940;28;20057;-80
2022/10/26 10:44:15;;;;;;;7.45;4.10;;;16.30;99.90;;;;;;5060413;28;20040;-81
2022/10/26 10:46:41;;;;;;;7.28;4.22;;;16.50;99.90;;;;;;5044306;28;20111;-80
2022/10/26 10:49:19;;;;;;;6.28;4.50;;;16.60;99.90;;;;;;5046342;28;20131;-81
2022/10/26 10:51:46;;;;;;;8.02;4.32;;;16.60;99.90;;;;;;5060602;28;20067;-81
2022/10/26 10:54:32;;;;;;;7.30;3.92;;;16.70;99.90;;;;;;5026457;28;20076;-81
2022/10/26 10:57:32;;;;;;;7.07;4.40;;;16.70;99.90;;;;;;5041869;28;20052;-80
2022/10/26 11:00:01;;;;;;;8.00;3.97;;;16.70;99.90;;;;;;5060835;28;20156;-81
2022/10/26 11:02:38;;;;;;;5.78;3.83;;;16.70;99.90;;;;;;5045711;28;20556;-81
2022/10/26 11:05:28;;;;;;;5.72;3.85;;;16.80;99.90;;;;;;5056185;28;20060;-81
2022/10/26 11:08:01;;;;;;;7.93;3.90;;;16.80;99.90;;;;;;5059066;28;20487;-80
2022/10/26 11:10:33;;;;;;;8.80;4.40;;;16.90;99.90;;;;;;5063448;28;20106;-80
2022/10/26 11:13:13;;;;;;;8.63;4.25;;;17.00;99.90;;;;;;5043089;28;20567;-81
2022/10/26 11:15:43;;;;;;;7.25;3.88;;;17.00;99.90;;;;;;5060700;28;20121;-82
2022/10/26 11:18:20;;;;;;;10.23;4.30;;;17.10;99.90;;;;;;5023373;28;20444;-81
2022/10/26 11:20:57;;;;;;;7.07;3.88;;;17.20;99.90;;;;;;5046916;28;20124;-83
2022/10/26 11:23:37;;;;;;;7.65;3.92;;;17.20;99.90;;;;;;5045343;28;20048;-82
2022/10/26 11:26:10;;;;;;;;;;;17.30;99.90;;;;;;5041855;28;20670;-81
2022/10/26 11:28:42;;;;;;;6.10;3.55;;;17.20;99.90;;;;;;5056667;28;19928;-83
2022/10/26 11:31:24;;;;;;;8.38;3.90;;;17.30;99.90;;;;;;5040227;28;20047;-82
2022/10/26 11:34:04;;;;;;;6.50;3.63;;;17.30;99.90;;;;;;5060098;28;20041;-82
2022/10/26 11:36:34;;;;;;;7.97;4.40;;;17.30;99.90;;;;;;5060782;28;20045;-82
2022/10/26 11:39:24;;;;;;;10.13;4.03;;;17.40;99.90;;;;;;5062505;28;20048;-81
2022/10/26 11:42:05;;;;;;;7.07;3.70;;;17.40;99.90;;;;;;5056364;28;20049;-82
2022/10/26 11:44:54;;;;;;;7.65;3.85;;;17.50;99.90;;;;;;5056892;28;20033;-82
2022/10/26 11:47:59;;;;;;;8.13;4.07;;;17.60;99.90;;;;;;5060522;28;20057;-73
2022/10/26 11:50:39;;;;;;;9.18;4.50;;;17.70;99.90;;;;;;5036667;28;20143;-74
2022/10/26 11:53:16;;;;;;;8.23;3.47;;;17.70;99.90;;;;;;5062636;28;20550;-74
2022/10/26 11:55:46;;;;;;;7.68;3.20;;;17.80;99.90;;;;;;5073788;28;20904;-74
2022/10/26 11:58:12;;;;;;;7.70;3.90;;;17.80;99.90;;;;;;5043147;28;20040;-74
2022/10/26 12:01:07;;;;;;;7.13;3.45;;;17.80;99.90;;;;;;5061769;28;20117;-81
2022/10/26 12:03:38;;;;;;;8.20;3.72;;;17.80;99.90;;;;;;5060552;28;20052;-83
2022/10/26 12:06:04;;;;;;;8.68;3.38;;;17.90;99.90;;;;;;5070885;28;20052;-83
2022/10/26 12:08:54;;;;;;;8.07;3.53;;;17.90;99.90;;;;;;5026434;28;20060;-81
2022/10/26 12:11:40;;;;;;;7.20;3.22;;;17.90;99.90;;;;;;5060006;28;20403;-83
2022/10/26 12:14:16;;;;;;;8.93;3.38;;;17.90;99.90;;;;;;5058062;28;20518;-83
2022/10/26 12:17:04;;;;;;;6.85;3.53;;;17.90;99.90;;;;;;5043992;28;20044;-82
2022/10/26 12:20:02;;;;;;;8.02;3.83;;;17.90;99.90;;;;;;5076435;28;20495;-81
2022/10/26 12:22:33;;;;;;;5.93;3.60;;;17.90;99.90;;;;;;5043804;28;20440;-81
2022/10/26 12:25:13;;;;;;;6.70;3.85;;;17.90;99.90;;;;;;5059735;28;20102;-81
2022/10/26 12:27:38;;;;;;;7.43;3.75;;;18.00;99.90;;;;;;5042260;28;20473;-82
2022/10/26 12:30:32;;;;;;;9.18;3.60;;;18.00;99.90;;;;;;5057315;28;20041;-81
2022/10/26 12:33:00;;;;;;;9.40;3.53;;;18.10;99.90;;;;;;5058719;28;20151;-82
2022/10/26 12:35:42;;;;;;;9.57;3.78;;;18.10;99.90;;;;;;5062807;28;20040;-82
2022/10/26 12:38:36;;;;;;;7.05;3.42;;;18.10;99.90;;;;;;5038080;28;20423;-82
2022/10/26 12:41:06;;;;;;;7.75;3.65;;;18.10;99.90;;;;;;5056984;28;20052;-82
2022/10/26 12:43:37;;;;;;;7.07;3.90;;;18.10;99.90;;;;;;5061121;28;20055;-83
2022/10/26 12:46:12;;;;;;;7.32;3.72;;;18.10;99.90;;;;;;5070348;28;20052;-81
2022/10/26 12:48:49;;;;;;;8.85;3.85;;;18.10;99.90;;;;;;5059706;28;20076;-82
2022/10/26 12:51:24;;;;;;;7.68;3.72;;;18.00;99.90;;;;;;5058877;28;20478;-81
2022/10/26 12:54:28;;;;;;;6.82;4.35;;;18.10;99.90;;;;;;5069163;28;20501;-82
2022/10/26 12:57:13;;;;;;;8.05;4.03;;;18.00;99.90;;;;;;5041499;28;20084;-82
2022/10/26 13:00:01;;;;;;;9.43;4.10;;;18.00;99.90;;;;;;5041300;28;20494;-73
2022/10/26 13:02:42;;;;;;;10.52;4.93;;;18.00;99.90;;;;;;5062237;28;20059;-73